createdAt,value
2022-08-09T00:00:56.455Z,2.60
2022-08-09T00:04:05.953Z,2.40
2022-08-09T00:06:53.498Z,2.70
2022-08-09T00:09:42.326Z,2.47
2022-08-09T00:12:34.575Z,2.30
2022-08-09T00:15:26.456Z,2.20
2022-08-09T00:18:24.205Z,2.65
2022-08-09T00:21:13.281Z,2.38
2022-08-09T00:24:02.332Z,2.30
2022-08-09T00:26:50.885Z,2.50
2022-08-09T00:30:16.315Z,2.40
2022-08-09T00:32:49.475Z,2.70
2022-08-09T00:35:43.367Z,2.50
2022-08-09T00:38:32.466Z,2.70
2022-08-09T00:44:16.317Z,2.53
2022-08-09T00:44:31.837Z,2.47
2022-08-09T00:47:20.632Z,2.55
2022-08-09T00:50:15.163Z,2.85
2022-08-09T00:53:10.223Z,2.72
2022-08-09T00:56:04.429Z,2.30
2022-08-09T00:58:54.671Z,2.63
2022-08-09T01:01:44.624Z,2.75
2022-08-09T01:04:42.158Z,2.53
2022-08-09T01:08:00.367Z,2.83
2022-08-09T01:10:59.655Z,2.58
2022-08-09T01:13:59.918Z,3.50
2022-08-09T01:16:53.643Z,2.60
2022-08-09T01:19:57.102Z,2.63
2022-08-09T01:24:01.143Z,2.60
2022-08-09T01:26:33.606Z,3.00
2022-08-09T01:29:41.270Z,2.45
2022-08-09T01:32:46.848Z,2.55
2022-08-09T01:35:42.401Z,2.75
2022-08-09T01:38:35.862Z,2.58
2022-08-09T01:41:29.912Z,2.70
2022-08-09T01:44:21.485Z,2.53
2022-08-09T01:47:12.144Z,2.45
2022-08-09T01:50:06.562Z,2.97
2022-08-09T01:52:57.235Z,2.50
2022-08-09T01:55:47.087Z,3.10
2022-08-09T01:58:36.292Z,2.50
2022-08-09T02:01:57.662Z,2.60
2022-08-09T02:04:40.592Z,2.67
2022-08-09T02:08:39.147Z,2.60
2022-08-09T02:10:50.692Z,2.47
2022-08-09T02:13:41.793Z,2.75
2022-08-09T02:16:59.256Z,2.60
2022-08-09T02:19:45.791Z,2.65
2022-08-09T02:22:39.848Z,2.63
2022-08-09T02:25:32.818Z,2.75
2022-08-09T02:28:36.661Z,2.65
2022-08-09T02:31:34.023Z,3.00
2022-08-09T02:34:40.485Z,2.60
2022-08-09T02:37:32.881Z,2.65
2022-08-09T02:40:30.468Z,2.88
2022-08-09T02:43:21.401Z,2.90
2022-08-09T02:46:14.504Z,2.85
2022-08-09T02:49:09.047Z,2.60
2022-08-09T02:52:01.501Z,2.78
2022-08-09T02:54:54.915Z,2.53
2022-08-09T02:58:00.561Z,2.90
2022-08-09T03:00:58.428Z,2.70
2022-08-09T03:04:16.947Z,2.72
2022-08-09T03:06:57.915Z,2.58
2022-08-09T03:09:54.045Z,2.88
2022-08-09T03:12:49.314Z,3.10
2022-08-09T03:16:06.592Z,2.92
2022-08-09T03:18:52.950Z,2.70
2022-08-09T03:21:50.818Z,2.70
2022-08-09T03:24:52.468Z,3.30
2022-08-09T03:27:55.388Z,2.63
2022-08-09T03:30:44.921Z,3.03
2022-08-09T03:33:54.176Z,2.67
2022-08-09T03:36:43.679Z,2.58
2022-08-09T03:39:48.477Z,2.80
2022-08-09T03:42:44.494Z,3.20
2022-08-09T03:46:04.758Z,2.90
2022-08-09T03:48:51.005Z,2.90
2022-08-09T03:51:58.615Z,3.05
2022-08-09T03:54:52.067Z,3.00
2022-08-09T03:57:53.384Z,3.20
2022-08-09T04:00:48.544Z,2.90
2022-08-09T04:04:00.569Z,3.05
2022-08-09T04:06:49.231Z,2.92
2022-08-09T04:09:48.135Z,3.10
2022-08-09T04:12:47.452Z,2.90
2022-08-09T04:16:18.101Z,2.72
2022-08-09T04:18:51.301Z,2.70
2022-08-09T04:21:40.290Z,2.60
2022-08-09T04:24:30.070Z,3.00
2022-08-09T04:27:22.160Z,3.00
2022-08-09T04:30:13.235Z,3.08
2022-08-09T04:33:02.364Z,3.25
2022-08-09T04:35:52.227Z,2.90
2022-08-09T04:38:40.731Z,3.38
2022-08-09T04:41:33.048Z,2.92
2022-08-09T04:44:22.185Z,2.90
2022-08-09T04:47:12.675Z,2.80
2022-08-09T04:50:02.243Z,3.22
2022-08-09T04:52:52.462Z,3.20
2022-08-09T04:55:58.848Z,3.30
2022-08-09T04:58:48.170Z,3.65
2022-08-09T05:01:39.427Z,3.05
2022-08-09T05:04:30.987Z,3.70
2022-08-09T05:07:20.281Z,3.20
2022-08-09T05:10:13.121Z,3.25
2022-08-09T05:13:03.803Z,3.28
2022-08-09T05:15:56.486Z,3.28
2022-08-09T05:18:58.643Z,3.67
2022-08-09T05:21:52.555Z,3.35
2022-08-09T05:24:44.626Z,3.65
2022-08-09T05:27:39.054Z,3.50
2022-08-09T05:30:35.328Z,3.30
2022-08-09T05:33:26.354Z,3.28
2022-08-09T05:36:21.301Z,3.85
2022-08-09T05:39:28.341Z,3.78
2022-08-09T05:42:21.932Z,3.55
2022-08-09T05:45:17.885Z,3.50
2022-08-09T05:48:07.032Z,3.60
2022-08-09T05:51:30.185Z,3.53
2022-08-09T05:54:05.909Z,3.55
2022-08-09T05:56:56.813Z,4.05
2022-08-09T05:59:45.405Z,4.03
2022-08-09T06:02:35.709Z,3.80
2022-08-09T06:05:31.273Z,3.75
2022-08-09T06:08:33.983Z,3.67
2022-08-09T06:11:40.561Z,3.70
2022-08-09T06:14:31.333Z,3.53
2022-08-09T06:17:20.241Z,3.88
2022-08-09T06:20:11.436Z,3.55
2022-08-09T06:23:06.850Z,3.40
2022-08-09T06:26:01.382Z,3.30
2022-08-09T06:29:00.105Z,3.20
2022-08-09T06:32:08.751Z,3.30
2022-08-09T06:34:58.413Z,3.17
2022-08-09T06:37:50.720Z,3.40
2022-08-09T06:40:42.107Z,3.30
2022-08-09T06:43:34.257Z,3.17
2022-08-09T06:46:40.285Z,4.10
2022-08-09T06:50:11.837Z,3.28
2022-08-09T06:52:40.251Z,3.20
2022-08-09T06:55:33.143Z,3.40
2022-08-09T06:58:40.590Z,3.60
2022-08-09T07:01:53.748Z,3.17
2022-08-09T07:04:39.220Z,3.10
2022-08-09T07:08:00.551Z,3.13
2022-08-09T07:10:39.361Z,3.20
2022-08-09T07:13:29.613Z,3.38
2022-08-09T07:16:42.389Z,3.50
2022-08-09T07:19:27.680Z,3.60
2022-08-09T07:22:16.574Z,3.13
2022-08-09T07:25:09.673Z,3.22
2022-08-09T07:28:00.179Z,2.83
2022-08-09T07:30:54.138Z,2.90
2022-08-09T07:33:52.662Z,2.95
2022-08-09T07:36:47.244Z,3.55
2022-08-09T07:39:41.237Z,2.97
2022-08-09T07:42:32.855Z,3.20
2022-08-09T07:45:39.502Z,2.92
2022-08-09T07:48:30.722Z,3.45
2022-08-09T07:52:05.143Z,3.53
2022-08-09T07:54:31.254Z,3.03
2022-08-09T07:57:21.138Z,3.08
2022-08-09T08:00:11.063Z,3.08
2022-08-09T08:03:11.463Z,3.47
2022-08-09T08:06:00.133Z,3.33
2022-08-09T08:09:02.113Z,3.50
2022-08-09T08:12:09.828Z,2.90
2022-08-09T08:15:01.999Z,2.72
2022-08-09T08:17:57.854Z,2.72
2022-08-09T08:20:48.765Z,3.10
2022-08-09T08:23:37.379Z,3.33
2022-08-09T08:26:41.962Z,3.50
2022-08-09T08:29:39.394Z,3.45
2022-08-09T08:32:33.903Z,3.10
2022-08-09T08:35:23.275Z,3.28
2022-08-09T08:38:18.280Z,2.63
2022-08-09T08:41:07.392Z,3.47
2022-08-09T08:44:02.528Z,2.90
2022-08-09T08:47:02.139Z,3.75
2022-08-09T08:49:55.794Z,3.17
2022-08-09T08:52:58.123Z,3.10
2022-08-09T08:55:52.558Z,3.40
2022-08-09T08:58:46.330Z,2.90
2022-08-09T09:01:52.291Z,2.88
2022-08-09T09:04:52.612Z,3.03
2022-08-09T09:07:45.338Z,3.20
2022-08-09T09:10:39.422Z,3.03
2022-08-09T09:13:41.811Z,2.88
2022-08-09T09:16:41.460Z,3.05
2022-08-09T09:19:40.909Z,2.70
2022-08-09T09:22:49.933Z,2.35
2022-08-09T09:26:03.245Z,2.22
2022-08-09T09:29:04.300Z,2.17
2022-08-09T09:32:06.865Z,2.13
2022-08-09T09:35:08.992Z,2.10
2022-08-09T09:38:00.343Z,2.30
2022-08-09T09:40:49.584Z,2.30
2022-08-09T09:44:11.144Z,2.10
2022-08-09T09:46:56.137Z,2.00
2022-08-09T09:50:13.836Z,2.30
2022-08-09T09:53:00.839Z,2.30
2022-08-09T09:56:03.826Z,2.50
2022-08-09T09:58:53.570Z,2.30
2022-08-09T10:01:44.132Z,2.30
2022-08-09T10:04:34.182Z,3.10
2022-08-09T10:07:25.491Z,2.65
2022-08-09T10:10:14.449Z,2.83
2022-08-09T10:13:07.285Z,3.22
2022-08-09T10:16:55.756Z,2.90
2022-08-09T10:19:08.993Z,2.60
2022-08-09T10:22:00.917Z,2.50
2022-08-09T10:24:50.079Z,2.70
2022-08-09T10:27:45.239Z,3.03
2022-08-09T10:32:07.122Z,2.83
2022-08-09T10:34:08.589Z,2.50
2022-08-09T10:37:04.764Z,3.28
2022-08-09T10:39:59.462Z,2.88
2022-08-09T10:42:53.185Z,3.08
2022-08-09T10:45:58.381Z,2.25
2022-08-09T10:48:54.300Z,2.50
2022-08-09T10:51:55.131Z,3.10
2022-08-09T10:54:51.187Z,3.08
2022-08-09T10:57:42.131Z,2.70
2022-08-09T11:00:50.799Z,2.70
2022-08-09T11:04:31.699Z,2.70
2022-08-09T11:07:54.080Z,2.50
2022-08-09T11:11:00.810Z,2.60
2022-08-09T11:14:32.078Z,2.65
2022-08-09T11:17:53.292Z,2.75
2022-08-09T11:20:49.723Z,2.75
2022-08-09T11:23:59.957Z,2.47
2022-08-09T11:26:54.690Z,2.42
2022-08-09T11:30:04.485Z,2.55
2022-08-09T11:33:01.659Z,2.38
2022-08-09T11:35:57.831Z,2.40
2022-08-09T11:39:02.454Z,2.40
2022-08-09T11:41:56.918Z,2.60
2022-08-09T11:44:49.204Z,2.75
2022-08-09T11:47:47.163Z,2.60
2022-08-09T11:51:38.048Z,2.40
2022-08-09T11:54:27.576Z,2.50
2022-08-09T11:58:00.165Z,2.63
2022-08-09T12:00:53.005Z,2.30
2022-08-09T12:03:55.047Z,2.60
2022-08-09T12:06:55.633Z,2.42
2022-08-09T12:09:50.970Z,2.90
2022-08-09T12:12:47.503Z,2.88
2022-08-09T12:15:50.249Z,2.38
2022-08-09T12:18:44.997Z,2.22
2022-08-09T12:21:48.417Z,2.33
2022-08-09T12:24:41.051Z,2.50
2022-08-09T12:29:11.660Z,2.55
2022-08-09T12:30:40.510Z,2.40
2022-08-09T12:33:51.019Z,2.35
2022-08-09T12:36:51.727Z,2.50
2022-08-09T12:40:02.593Z,4.25
2022-08-09T12:42:51.470Z,3.70
2022-08-09T12:45:40.560Z,2.75
2022-08-09T12:48:33.538Z,2.47
2022-08-09T12:51:52.193Z,2.47
2022-08-09T12:55:03.030Z,2.63
2022-08-09T12:58:12.108Z,2.40
2022-08-09T13:01:26.800Z,2.40
2022-08-09T13:04:33.270Z,2.30
2022-08-09T13:07:49.964Z,2.90
2022-08-09T13:10:52.395Z,2.85
2022-08-09T13:14:40.893Z,2.58
2022-08-09T13:16:53.563Z,2.70
2022-08-09T13:20:08.482Z,2.45
2022-08-09T13:23:01.344Z,2.60
2022-08-09T13:25:55.935Z,2.65
2022-08-09T13:29:06.436Z,2.80
2022-08-09T13:32:19.443Z,2.60
2022-08-09T13:35:11.747Z,2.80
2022-08-09T13:38:00.679Z,2.60
2022-08-09T13:41:45.639Z,2.75
2022-08-09T13:44:09.313Z,2.80
2022-08-09T13:47:25.474Z,2.53
2022-08-09T13:50:30.488Z,2.80
2022-08-09T13:53:20.234Z,2.83
2022-08-09T13:56:27.431Z,3.10
2022-08-09T13:59:25.109Z,2.60
2022-08-09T14:02:14.106Z,2.60
2022-08-09T14:05:56.909Z,2.45
2022-08-09T14:08:23.167Z,2.97
2022-08-09T14:11:16.302Z,2.45
2022-08-09T14:14:22.823Z,2.60
2022-08-09T14:17:15.259Z,2.70
2022-08-09T14:20:12.676Z,3.13
2022-08-09T14:23:04.925Z,3.13
2022-08-09T14:25:56.078Z,3.25
2022-08-09T14:28:46.880Z,2.65
2022-08-09T14:31:52.233Z,2.45
2022-08-09T14:34:44.131Z,2.92
2022-08-09T14:37:41.111Z,2.58
2022-08-09T14:41:01.052Z,2.53
2022-08-09T14:43:53.615Z,3.63
2022-08-09T14:47:03.175Z,3.00
2022-08-09T14:50:01.942Z,2.65
2022-08-09T14:52:51.131Z,2.60
2022-08-09T14:55:42.184Z,2.83
2022-08-09T14:58:30.953Z,2.63
2022-08-09T15:01:20.036Z,2.40
2022-08-09T15:04:09.825Z,2.88
2022-08-09T15:06:59.875Z,2.75
2022-08-09T15:10:03.641Z,3.13
2022-08-09T15:12:53.587Z,2.92
2022-08-09T15:15:43.805Z,3.50
2022-08-09T15:18:32.397Z,4.00
2022-08-09T15:21:54.742Z,3.00
2022-08-09T15:24:31.308Z,3.10
2022-08-09T15:27:19.766Z,3.22
2022-08-09T15:30:55.612Z,3.13
2022-08-09T15:33:23.487Z,2.92
2022-08-09T15:36:30.016Z,2.80
2022-08-09T15:39:20.991Z,2.65
2022-08-09T15:42:10.955Z,2.70
2022-08-09T15:45:00.123Z,2.40
2022-08-09T15:48:03.175Z,2.78
2022-08-09T15:50:56.433Z,2.58
2022-08-09T15:54:03.530Z,2.92
2022-08-09T15:56:53.981Z,3.03
2022-08-09T15:59:48.399Z,2.88
2022-08-09T16:02:40.442Z,2.90
2022-08-09T16:05:47.658Z,2.70
2022-08-09T16:08:44.621Z,2.83
2022-08-09T16:11:38.417Z,2.83
2022-08-09T16:14:31.517Z,3.00
2022-08-09T16:17:22.539Z,2.55
2022-08-09T16:20:12.880Z,2.78
2022-08-09T16:23:01.477Z,2.50
2022-08-09T16:25:51.554Z,2.50
2022-08-09T16:28:49.728Z,2.92
2022-08-09T16:32:12.640Z,2.80
2022-08-09T16:34:56.774Z,2.78
2022-08-09T16:37:53.291Z,3.00
2022-08-09T16:40:43.745Z,2.70
2022-08-09T16:43:34.428Z,2.95
2022-08-09T16:46:29.384Z,2.97
2022-08-09T16:50:29.716Z,2.72
2022-08-09T16:52:28.791Z,2.90
2022-08-09T16:55:18.639Z,2.80
2022-08-09T16:58:08.568Z,2.40
2022-08-09T17:00:59.272Z,2.58
2022-08-09T17:03:47.986Z,2.60
2022-08-09T17:06:47.346Z,2.88
2022-08-09T17:09:48.065Z,2.67
2022-08-09T17:12:36.835Z,2.90
2022-08-09T17:15:30.960Z,2.80
2022-08-09T17:18:34.223Z,2.90
2022-08-09T17:21:24.289Z,2.80
2022-08-09T17:24:27.783Z,2.78
2022-08-09T17:27:20.802Z,2.97
2022-08-09T17:30:14.069Z,2.85
2022-08-09T17:33:22.352Z,2.80
2022-08-09T17:36:15.811Z,3.10
2022-08-09T17:39:04.870Z,9.48
2022-08-09T17:41:57.111Z,3.45
2022-08-09T17:44:51.400Z,3.08
2022-08-09T17:47:49.174Z,4.13
2022-08-09T17:50:38.614Z,3.10
2022-08-09T17:53:27.713Z,2.92
2022-08-09T17:56:21.071Z,3.35
2022-08-09T17:59:11.759Z,3.33
2022-08-09T18:02:12.883Z,3.15
2022-08-09T18:05:12.926Z,3.00
2022-08-09T18:08:03.747Z,3.45
2022-08-09T18:11:01.835Z,3.13
2022-08-09T18:13:59.768Z,2.90
2022-08-09T18:16:54.878Z,3.67
2022-08-09T18:20:53.814Z,3.13
2022-08-09T18:22:53.443Z,3.03
2022-08-09T18:25:51.260Z,3.20
2022-08-09T18:30:36.362Z,3.22
2022-08-09T18:31:55.870Z,3.25
2022-08-09T18:34:48.233Z,3.38
2022-08-09T18:37:48.090Z,3.50
2022-08-09T18:40:45.208Z,3.38
2022-08-09T18:43:35.253Z,3.53
2022-08-09T18:46:50.383Z,3.38
2022-08-09T18:49:43.759Z,3.38
2022-08-09T18:52:38.934Z,3.40
2022-08-09T18:55:56.407Z,3.83
2022-08-09T18:58:38.970Z,3.40
2022-08-09T19:01:27.817Z,3.75
2022-08-09T19:04:35.109Z,3.35
2022-08-09T19:07:24.147Z,3.90
2022-08-09T19:10:17.990Z,4.00
2022-08-09T19:13:22.012Z,3.97
2022-08-09T19:16:21.043Z,4.20
2022-08-09T19:19:25.166Z,3.70
2022-08-09T19:22:17.603Z,4.03
2022-08-09T19:25:42.575Z,4.03
2022-08-09T19:28:18.647Z,3.97
2022-08-09T19:31:07.944Z,4.10
2022-08-09T19:33:56.954Z,3.72
2022-08-09T19:36:46.404Z,3.90
2022-08-09T19:40:02.635Z,3.88
2022-08-09T19:42:44.509Z,4.18
2022-08-09T19:45:41.207Z,3.75
2022-08-09T19:49:01.049Z,3.90
2022-08-09T19:51:40.500Z,3.85
2022-08-09T19:54:37.300Z,3.90
2022-08-09T19:57:26.062Z,4.35
2022-08-09T20:00:16.045Z,3.80
2022-08-09T20:04:17.918Z,4.18
2022-08-09T20:06:22.333Z,3.80
2022-08-09T20:09:44.840Z,3.95
2022-08-09T20:12:37.563Z,4.00
2022-08-09T20:16:33.756Z,3.90
2022-08-09T20:19:04.060Z,4.20
2022-08-09T20:21:56.853Z,4.18
2022-08-09T20:24:54.052Z,4.40
2022-08-09T20:27:43.265Z,4.30
2022-08-09T20:30:32.173Z,4.30
2022-08-09T20:33:20.901Z,4.13
2022-08-09T20:36:11.685Z,4.05
2022-08-09T20:40:13.121Z,4.45
2022-08-09T20:42:09.465Z,4.22
2022-08-09T20:45:57.162Z,4.40
2022-08-09T20:48:11.045Z,4.18
2022-08-09T20:51:00.813Z,3.50
2022-08-09T20:53:51.106Z,4.35
2022-08-09T20:56:41.031Z,4.43
2022-08-09T21:00:19.519Z,4.00
2022-08-09T21:02:38.629Z,4.18
2022-08-09T21:05:54.029Z,4.30
2022-08-09T21:08:41.321Z,4.15
2022-08-09T21:14:41.965Z,4.38
2022-08-09T21:18:20.757Z,4.70
2022-08-09T21:20:39.369Z,4.35
2022-08-09T21:23:47.457Z,4.40
2022-08-09T21:26:38.164Z,4.65
2022-08-09T21:29:27.993Z,4.40
2022-08-09T21:32:36.620Z,4.50
2022-08-09T21:35:27.152Z,4.28
2022-08-09T21:38:31.066Z,4.50
2022-08-09T21:41:20.224Z,4.57
2022-08-09T21:44:34.323Z,4.78
2022-08-09T21:47:24.181Z,5.00
2022-08-09T21:50:17.638Z,4.53
2022-08-09T21:53:15.636Z,4.15
2022-08-09T21:56:33.677Z,4.53
2022-08-09T21:59:23.150Z,4.18
2022-08-09T22:02:36.308Z,3.88
2022-08-09T22:05:35.791Z,4.25
2022-08-09T22:08:30.679Z,4.15
2022-08-09T22:12:06.129Z,4.30
2022-08-09T22:14:28.270Z,4.80
2022-08-09T22:17:18.319Z,4.85
2022-08-09T22:20:07.841Z,4.68
2022-08-09T22:22:56.716Z,4.82
2022-08-09T22:26:07.033Z,4.95
2022-08-09T22:28:54.443Z,4.90
2022-08-09T22:31:44.659Z,4.32
2022-08-09T22:34:50.064Z,4.40
2022-08-09T22:38:07.106Z,5.00
2022-08-09T22:40:57.862Z,4.85
2022-08-09T22:44:01.804Z,4.70
2022-08-09T22:48:11.233Z,4.47
2022-08-09T22:50:02.418Z,4.80
2022-08-09T22:52:54.670Z,4.43
2022-08-09T22:56:30.915Z,4.50
2022-08-09T22:58:55.387Z,4.15
2022-08-09T23:01:45.861Z,4.50
2022-08-09T23:04:34.563Z,4.45
2022-08-09T23:08:22.286Z,4.10
2022-08-09T23:10:54.423Z,4.38
2022-08-09T23:13:44.867Z,4.35
2022-08-09T23:16:33.499Z,4.45
2022-08-09T23:19:22.408Z,4.47
2022-08-09T23:22:11.054Z,4.00
2022-08-09T23:25:01.104Z,4.00
2022-08-09T23:28:14.912Z,3.85
2022-08-09T23:30:58.346Z,4.25
2022-08-09T23:33:47.136Z,4.10
2022-08-09T23:36:36.254Z,3.95
2022-08-09T23:39:24.856Z,4.03
2022-08-09T23:42:14.809Z,4.63
2022-08-09T23:45:04.160Z,4.00
2022-08-09T23:47:55.861Z,4.28
2022-08-09T23:50:44.417Z,4.45
2022-08-09T23:53:37.769Z,4.22
2022-08-09T23:56:53.801Z,4.40
2022-08-09T23:59:50.975Z,5.03
